sensor_id;sensor_type;location;lat;lon;timestamp;temperature;humidity
15991;DHT22;8100;50.994;4.538;2022-07-23T00:00:42;15.20;99.90
15991;DHT22;8100;50.994;4.538;2022-07-23T00:03:31;15.20;99.90
15991;DHT22;8100;50.994;4.538;2022-07-23T00:06:18;15.10;99.90
15991;DHT22;8100;50.994;4.538;2022-07-23T00:09:06;15.10;99.90
15991;DHT22;8100;50.994;4.538;2022-07-23T00:11:53;15.10;99.90
15991;DHT22;8100;50.994;4.538;2022-07-23T00:14:40;15.10;99.90
15991;DHT22;8100;50.994;4.538;2022-07-23T00:17:27;15.00;99.90
15991;DHT22;8100;50.994;4.538;2022-07-23T00:20:16;14.90;99.90
15991;DHT22;8100;50.994;4.538;2022-07-23T00:23:03;14.90;99.90
15991;DHT22;8100;50.994;4.538;2022-07-23T00:25:50;14.90;99.90
15991;DHT22;8100;50.994;4.538;2022-07-23T00:28:38;14.80;99.90
15991;DHT22;8100;50.994;4.538;2022-07-23T00:31:25;14.90;99.90
15991;DHT22;8100;50.994;4.538;2022-07-23T00:34:13;14.80;99.90
15991;DHT22;8100;50.994;4.538;2022-07-23T00:37:01;14.80;99.90
15991;DHT22;8100;50.994;4.538;2022-07-23T00:39:48;14.70;99.90
15991;DHT22;8100;50.994;4.538;2022-07-23T00:42:36;14.70;99.90
15991;DHT22;8100;50.994;4.538;2022-07-23T00:45:23;14.70;99.90
15991;DHT22;8100;50.994;4.538;2022-07-23T00:48:10;14.70;99.90
15991;DHT22;8100;50.994;4.538;2022-07-23T00:50:58;14.60;99.90
15991;DHT22;8100;50.994;4.538;2022-07-23T00:53:46;14.50;99.90
15991;DHT22;8100;50.994;4.538;2022-07-23T00:56:34;14.60;99.90
15991;DHT22;8100;50.994;4.538;2022-07-23T00:59:21;14.50;99.90
15991;DHT22;8100;50.994;4.538;2022-07-23T01:02:09;14.50;99.90
15991;DHT22;8100;50.994;4.538;2022-07-23T01:04:56;14.60;99.90
15991;DHT22;8100;50.994;4.538;2022-07-23T01:07:43;14.50;99.90
15991;DHT22;8100;50.994;4.538;2022-07-23T01:10:32;14.50;99.90
15991;DHT22;8100;50.994;4.538;2022-07-23T01:13:20;14.40;99.90
15991;DHT22;8100;50.994;4.538;2022-07-23T01:16:07;14.50;99.90
15991;DHT22;8100;50.994;4.538;2022-07-23T01:18:54;14.40;99.90
15991;DHT22;8100;50.994;4.538;2022-07-23T01:21:43;14.30;99.90
15991;DHT22;8100;50.994;4.538;2022-07-23T01:24:32;14.30;99.90
15991;DHT22;8100;50.994;4.538;2022-07-23T01:27:19;14.20;99.90
15991;DHT22;8100;50.994;4.538;2022-07-23T01:30:07;14.20;99.90
15991;DHT22;8100;50.994;4.538;2022-07-23T01:32:54;14.20;99.90
15991;DHT22;8100;50.994;4.538;2022-07-23T01:35:42;14.30;99.90
15991;DHT22;8100;50.994;4.538;2022-07-23T01:38:29;14.20;99.90
15991;DHT22;8100;50.994;4.538;2022-07-23T01:41:18;14.10;99.90
15991;DHT22;8100;50.994;4.538;2022-07-23T01:44:05;14.10;99.90
15991;DHT22;8100;50.994;4.538;2022-07-23T01:46:52;14.10;99.90
15991;DHT22;8100;50.994;4.538;2022-07-23T01:49:39;14.10;99.90
15991;DHT22;8100;50.994;4.538;2022-07-23T01:52:26;14.00;99.90
15991;DHT22;8100;50.994;4.538;2022-07-23T01:55:14;13.90;99.90
15991;DHT22;8100;50.994;4.538;2022-07-23T01:58:03;14.00;99.90
15991;DHT22;8100;50.994;4.538;2022-07-23T02:00:51;14.00;99.90
15991;DHT22;8100;50.994;4.538;2022-07-23T02:03:38;14.00;99.90
15991;DHT22;8100;50.994;4.538;2022-07-23T02:06:25;13.90;99.90
15991;DHT22;8100;50.994;4.538;2022-07-23T02:09:13;13.90;99.90
15991;DHT22;8100;50.994;4.538;2022-07-23T02:12:00;13.90;99.90
15991;DHT22;8100;50.994;4.538;2022-07-23T02:14:49;13.90;99.90
15991;DHT22;8100;50.994;4.538;2022-07-23T02:17:36;13.90;99.90
15991;DHT22;8100;50.994;4.538;2022-07-23T02:20:24;13.90;99.90
15991;DHT22;8100;50.994;4.538;2022-07-23T02:23:11;13.80;99.90
15991;DHT22;8100;50.994;4.538;2022-07-23T02:25:58;13.90;99.90
15991;DHT22;8100;50.994;4.538;2022-07-23T02:28:45;13.80;99.90
15991;DHT22;8100;50.994;4.538;2022-07-23T02:31:34;13.90;99.90
15991;DHT22;8100;50.994;4.538;2022-07-23T02:34:21;13.70;99.90
15991;DHT22;8100;50.994;4.538;2022-07-23T02:37:08;13.70;99.90
15991;DHT22;8100;50.994;4.538;2022-07-23T02:39:56;13.60;99.90
15991;DHT22;8100;50.994;4.538;2022-07-23T02:42:43;13.70;99.90
15991;DHT22;8100;50.994;4.538;2022-07-23T02:45:30;13.60;99.90
15991;DHT22;8100;50.994;4.538;2022-07-23T02:48:18;13.60;99.90
15991;DHT22;8100;50.994;4.538;2022-07-23T02:51:06;13.60;99.90
15991;DHT22;8100;50.994;4.538;2022-07-23T02:53:53;13.50;99.90
15991;DHT22;8100;50.994;4.538;2022-07-23T02:56:40;13.60;99.90
15991;DHT22;8100;50.994;4.538;2022-07-23T02:59:27;13.60;99.90
15991;DHT22;8100;50.994;4.538;2022-07-23T03:02:15;13.50;99.90
15991;DHT22;8100;50.994;4.538;2022-07-23T03:05:04;13.40;99.90
15991;DHT22;8100;50.994;4.538;2022-07-23T03:07:52;13.30;99.90
15991;DHT22;8100;50.994;4.538;2022-07-23T03:10:39;13.30;99.90
15991;DHT22;8100;50.994;4.538;2022-07-23T03:13:26;13.40;99.90
15991;DHT22;8100;50.994;4.538;2022-07-23T03:16:13;13.40;99.90
15991;DHT22;8100;50.994;4.538;2022-07-23T03:19:01;13.40;99.90
15991;DHT22;8100;50.994;4.538;2022-07-23T03:21:49;13.30;99.90
15991;DHT22;8100;50.994;4.538;2022-07-23T03:24:36;13.40;99.90
15991;DHT22;8100;50.994;4.538;2022-07-23T03:27:42;13.30;99.90
15991;DHT22;8100;50.994;4.538;2022-07-23T03:30:31;13.30;99.90
15991;DHT22;8100;50.994;4.538;2022-07-23T03:33:21;13.30;99.90
15991;DHT22;8100;50.994;4.538;2022-07-23T03:36:09;13.30;99.90
15991;DHT22;8100;50.994;4.538;2022-07-23T03:38:57;13.20;99.90
15991;DHT22;8100;50.994;4.538;2022-07-23T03:41:44;13.10;99.90
15991;DHT22;8100;50.994;4.538;2022-07-23T03:44:32;13.10;99.90
15991;DHT22;8100;50.994;4.538;2022-07-23T03:47:19;13.00;99.90
15991;DHT22;8100;50.994;4.538;2022-07-23T03:50:08;13.00;99.90
15991;DHT22;8100;50.994;4.538;2022-07-23T03:52:55;13.10;99.90
15991;DHT22;8100;50.994;4.538;2022-07-23T03:55:44;13.10;99.90
15991;DHT22;8100;50.994;4.538;2022-07-23T03:58:31;13.00;99.90
15991;DHT22;8100;50.994;4.538;2022-07-23T04:01:18;13.00;99.90
15991;DHT22;8100;50.994;4.538;2022-07-23T04:04:05;13.00;99.90
15991;DHT22;8100;50.994;4.538;2022-07-23T04:06:54;13.10;99.90
15991;DHT22;8100;50.994;4.538;2022-07-23T04:09:41;13.10;99.90
15991;DHT22;8100;50.994;4.538;2022-07-23T04:12:29;13.10;99.90
15991;DHT22;8100;50.994;4.538;2022-07-23T04:15:17;13.20;99.90
15991;DHT22;8100;50.994;4.538;2022-07-23T04:18:04;13.10;99.90
15991;DHT22;8100;50.994;4.538;2022-07-23T04:20:52;13.20;99.90
15991;DHT22;8100;50.994;4.538;2022-07-23T04:23:39;13.10;99.90
15991;DHT22;8100;50.994;4.538;2022-07-23T04:26:26;13.20;99.90
15991;DHT22;8100;50.994;4.538;2022-07-23T04:29:15;13.30;99.90
15991;DHT22;8100;50.994;4.538;2022-07-23T04:32:02;13.30;99.90
15991;DHT22;8100;50.994;4.538;2022-07-23T04:34:49;13.20;99.90
15991;DHT22;8100;50.994;4.538;2022-07-23T04:37:37;13.40;99.90
15991;DHT22;8100;50.994;4.538;2022-07-23T04:40:24;13.20;99.90
15991;DHT22;8100;50.994;4.538;2022-07-23T04:43:11;13.10;99.90
15991;DHT22;8100;50.994;4.538;2022-07-23T04:46:00;13.20;99.90
15991;DHT22;8100;50.994;4.538;2022-07-23T04:48:47;13.30;99.90
15991;DHT22;8100;50.994;4.538;2022-07-23T04:51:34;13.40;99.90
15991;DHT22;8100;50.994;4.538;2022-07-23T04:54:21;13.50;99.90
15991;DHT22;8100;50.994;4.538;2022-07-23T04:57:08;13.60;99.90
15991;DHT22;8100;50.994;4.538;2022-07-23T04:59:56;13.70;99.90
15991;DHT22;8100;50.994;4.538;2022-07-23T05:02:44;13.80;99.90
15991;DHT22;8100;50.994;4.538;2022-07-23T05:05:31;13.90;99.90
15991;DHT22;8100;50.994;4.538;2022-07-23T05:08:19;13.90;99.90
15991;DHT22;8100;50.994;4.538;2022-07-23T05:11:06;14.00;99.90
15991;DHT22;8100;50.994;4.538;2022-07-23T05:13:53;14.20;99.90
15991;DHT22;8100;50.994;4.538;2022-07-23T05:16:40;14.40;99.90
15991;DHT22;8100;50.994;4.538;2022-07-23T05:19:29;14.50;99.90
15991;DHT22;8100;50.994;4.538;2022-07-23T05:22:16;14.70;99.90
15991;DHT22;8100;50.994;4.538;2022-07-23T05:25:04;14.80;99.90
15991;DHT22;8100;50.994;4.538;2022-07-23T05:27:52;15.00;99.90
15991;DHT22;8100;50.994;4.538;2022-07-23T05:30:39;15.10;99.90
15991;DHT22;8100;50.994;4.538;2022-07-23T05:33:26;15.30;99.90
15991;DHT22;8100;50.994;4.538;2022-07-23T05:36:14;15.40;99.90
15991;DHT22;8100;50.994;4.538;2022-07-23T05:39:02;15.60;99.90
15991;DHT22;8100;50.994;4.538;2022-07-23T05:41:49;15.70;99.90
15991;DHT22;8100;50.994;4.538;2022-07-23T05:44:37;15.90;99.90
15991;DHT22;8100;50.994;4.538;2022-07-23T05:47:24;16.10;99.90
15991;DHT22;8100;50.994;4.538;2022-07-23T05:50:12;16.20;99.90
15991;DHT22;8100;50.994;4.538;2022-07-23T05:53:01;16.20;99.90
15991;DHT22;8100;50.994;4.538;2022-07-23T05:55:48;16.40;99.90
15991;DHT22;8100;50.994;4.538;2022-07-23T05:58:35;16.50;99.90
15991;DHT22;8100;50.994;4.538;2022-07-23T06:01:22;16.60;99.90
15991;DHT22;8100;50.994;4.538;2022-07-23T06:04:10;16.50;99.90
15991;DHT22;8100;50.994;4.538;2022-07-23T06:06:57;16.50;99.90
15991;DHT22;8100;50.994;4.538;2022-07-23T06:09:45;16.60;99.90
15991;DHT22;8100;50.994;4.538;2022-07-23T06:12:35;16.60;99.90
15991;DHT22;8100;50.994;4.538;2022-07-23T06:15:22;16.60;99.90
15991;DHT22;8100;50.994;4.538;2022-07-23T06:18:09;16.50;99.90
15991;DHT22;8100;50.994;4.538;2022-07-23T06:20:56;16.40;99.90
15991;DHT22;8100;50.994;4.538;2022-07-23T06:23:44;16.40;99.90
15991;DHT22;8100;50.994;4.538;2022-07-23T06:26:32;16.40;99.90
15991;DHT22;8100;50.994;4.538;2022-07-23T06:29:19;16.40;99.90
15991;DHT22;8100;50.994;4.538;2022-07-23T06:32:07;16.40;99.90
15991;DHT22;8100;50.994;4.538;2022-07-23T06:34:54;16.40;99.90
15991;DHT22;8100;50.994;4.538;2022-07-23T06:37:42;16.70;99.90
15991;DHT22;8100;50.994;4.538;2022-07-23T06:40:29;17.00;99.90
15991;DHT22;8100;50.994;4.538;2022-07-23T06:43:18;17.30;99.90
15991;DHT22;8100;50.994;4.538;2022-07-23T06:46:06;17.40;99.90
15991;DHT22;8100;50.994;4.538;2022-07-23T06:48:53;17.60;99.90
15991;DHT22;8100;50.994;4.538;2022-07-23T06:51:40;17.80;99.90
15991;DHT22;8100;50.994;4.538;2022-07-23T06:54:27;18.00;99.90
15991;DHT22;8100;50.994;4.538;2022-07-23T06:57:14;17.90;99.90
15991;DHT22;8100;50.994;4.538;2022-07-23T07:00:04;18.20;99.90
15991;DHT22;8100;50.994;4.538;2022-07-23T07:02:53;18.30;99.90
15991;DHT22;8100;50.994;4.538;2022-07-23T07:05:40;18.40;99.90
15991;DHT22;8100;50.994;4.538;2022-07-23T07:08:28;18.60;99.90
15991;DHT22;8100;50.994;4.538;2022-07-23T07:11:15;18.70;99.90
15991;DHT22;8100;50.994;4.538;2022-07-23T07:14:02;18.70;99.90
15991;DHT22;8100;50.994;4.538;2022-07-23T07:16:51;18.90;99.90
15991;DHT22;8100;50.994;4.538;2022-07-23T07:19:38;18.90;99.90
15991;DHT22;8100;50.994;4.538;2022-07-23T07:22:26;18.90;99.90
15991;DHT22;8100;50.994;4.538;2022-07-23T07:25:13;19.10;99.90
15991;DHT22;8100;50.994;4.538;2022-07-23T07:28:00;19.20;99.90
15991;DHT22;8100;50.994;4.538;2022-07-23T07:30:47;19.30;99.90
15991;DHT22;8100;50.994;4.538;2022-07-23T07:33:36;19.40;99.90
15991;DHT22;8100;50.994;4.538;2022-07-23T07:36:23;19.70;99.90
15991;DHT22;8100;50.994;4.538;2022-07-23T07:39:11;19.80;99.90
15991;DHT22;8100;50.994;4.538;2022-07-23T07:41:58;19.80;99.90
15991;DHT22;8100;50.994;4.538;2022-07-23T07:44:45;19.70;99.90
15991;DHT22;8100;50.994;4.538;2022-07-23T07:47:32;19.80;99.90
15991;DHT22;8100;50.994;4.538;2022-07-23T07:50:22;19.90;99.90
15991;DHT22;8100;50.994;4.538;2022-07-23T07:53:09;20.00;99.90
15991;DHT22;8100;50.994;4.538;2022-07-23T07:55:56;20.10;99.90
15991;DHT22;8100;50.994;4.538;2022-07-23T07:58:43;19.80;99.90
15991;DHT22;8100;50.994;4.538;2022-07-23T08:01:31;20.00;99.90
15991;DHT22;8100;50.994;4.538;2022-07-23T08:04:18;20.30;99.90
15991;DHT22;8100;50.994;4.538;2022-07-23T08:07:07;20.60;99.90
15991;DHT22;8100;50.994;4.538;2022-07-23T08:09:54;20.90;99.90
15991;DHT22;8100;50.994;4.538;2022-07-23T08:12:43;20.90;99.90
15991;DHT22;8100;50.994;4.538;2022-07-23T08:15:31;20.70;99.90
15991;DHT22;8100;50.994;4.538;2022-07-23T08:18:19;20.70;99.90
15991;DHT22;8100;50.994;4.538;2022-07-23T08:21:06;20.80;99.90
15991;DHT22;8100;50.994;4.538;2022-07-23T08:23:55;21.10;99.90
15991;DHT22;8100;50.994;4.538;2022-07-23T08:26:42;21.10;99.90
15991;DHT22;8100;50.994;4.538;2022-07-23T08:29:29;21.30;99.90
15991;DHT22;8100;50.994;4.538;2022-07-23T08:32:17;21.50;99.90
15991;DHT22;8100;50.994;4.538;2022-07-23T08:35:04;21.70;99.90
15991;DHT22;8100;50.994;4.538;2022-07-23T08:37:51;21.80;99.90
15991;DHT22;8100;50.994;4.538;2022-07-23T08:40:42;21.80;99.90
15991;DHT22;8100;50.994;4.538;2022-07-23T08:43:32;21.70;99.90
15991;DHT22;8100;50.994;4.538;2022-07-23T08:46:19;21.70;99.90
15991;DHT22;8100;50.994;4.538;2022-07-23T08:49:07;21.90;99.90
15991;DHT22;8100;50.994;4.538;2022-07-23T08:51:55;22.00;99.90
15991;DHT22;8100;50.994;4.538;2022-07-23T08:54:43;22.30;99.90
15991;DHT22;8100;50.994;4.538;2022-07-23T08:57:32;22.20;99.90
15991;DHT22;8100;50.994;4.538;2022-07-23T09:00:21;22.30;99.90
15991;DHT22;8100;50.994;4.538;2022-07-23T09:03:16;22.20;99.90
15991;DHT22;8100;50.994;4.538;2022-07-23T09:06:03;22.30;99.90
15991;DHT22;8100;50.994;4.538;2022-07-23T09:08:51;22.20;99.90
15991;DHT22;8100;50.994;4.538;2022-07-23T09:11:38;22.40;99.90
15991;DHT22;8100;50.994;4.538;2022-07-23T09:14:38;22.70;99.90
15991;DHT22;8100;50.994;4.538;2022-07-23T09:17:25;22.60;99.90
15991;DHT22;8100;50.994;4.538;2022-07-23T09:20:14;22.80;99.90
15991;DHT22;8100;50.994;4.538;2022-07-23T09:23:02;22.80;99.90
15991;DHT22;8100;50.994;4.538;2022-07-23T09:25:49;23.00;99.90
15991;DHT22;8100;50.994;4.538;2022-07-23T09:28:51;23.10;99.90
15991;DHT22;8100;50.994;4.538;2022-07-23T09:31:46;22.90;99.90
15991;DHT22;8100;50.994;4.538;2022-07-23T09:34:35;23.00;99.90
15991;DHT22;8100;50.994;4.538;2022-07-23T09:37:24;22.90;99.90
15991;DHT22;8100;50.994;4.538;2022-07-23T09:40:12;22.90;99.90
15991;DHT22;8100;50.994;4.538;2022-07-23T09:43:02;23.10;99.90
15991;DHT22;8100;50.994;4.538;2022-07-23T09:45:49;23.10;99.90
15991;DHT22;8100;50.994;4.538;2022-07-23T09:48:38;23.30;99.90
15991;DHT22;8100;50.994;4.538;2022-07-23T09:51:25;23.40;99.90
15991;DHT22;8100;50.994;4.538;2022-07-23T09:54:30;23.40;99.90
15991;DHT22;8100;50.994;4.538;2022-07-23T09:57:18;23.30;99.90
15991;DHT22;8100;50.994;4.538;2022-07-23T10:00:08;23.60;99.90
15991;DHT22;8100;50.994;4.538;2022-07-23T10:02:57;23.60;99.90
15991;DHT22;8100;50.994;4.538;2022-07-23T10:05:46;23.80;99.90
15991;DHT22;8100;50.994;4.538;2022-07-23T10:08:34;23.80;99.90
15991;DHT22;8100;50.994;4.538;2022-07-23T10:11:21;23.80;99.90
15991;DHT22;8100;50.994;4.538;2022-07-23T10:14:09;24.10;99.90
15991;DHT22;8100;50.994;4.538;2022-07-23T10:16:56;24.00;99.90
15991;DHT22;8100;50.994;4.538;2022-07-23T10:19:44;24.20;99.90
15991;DHT22;8100;50.994;4.538;2022-07-23T10:22:35;24.30;99.90
15991;DHT22;8100;50.994;4.538;2022-07-23T10:25:29;24.40;99.90
15991;DHT22;8100;50.994;4.538;2022-07-23T10:28:33;24.70;99.90
15991;DHT22;8100;50.994;4.538;2022-07-23T10:31:35;25.10;99.90
15991;DHT22;8100;50.994;4.538;2022-07-23T10:34:30;25.10;99.90
15991;DHT22;8100;50.994;4.538;2022-07-23T10:37:24;24.70;99.90
15991;DHT22;8100;50.994;4.538;2022-07-23T10:40:17;24.60;99.90
15991;DHT22;8100;50.994;4.538;2022-07-23T10:43:13;24.50;99.90
15991;DHT22;8100;50.994;4.538;2022-07-23T10:46:22;24.50;99.90
15991;DHT22;8100;50.994;4.538;2022-07-23T10:49:28;24.30;99.90
15991;DHT22;8100;50.994;4.538;2022-07-23T10:52:20;24.30;99.90
15991;DHT22;8100;50.994;4.538;2022-07-23T10:55:40;24.50;99.90
15991;DHT22;8100;50.994;4.538;2022-07-23T10:58:46;24.50;99.90
15991;DHT22;8100;50.994;4.538;2022-07-23T11:01:35;24.70;99.90
15991;DHT22;8100;50.994;4.538;2022-07-23T11:04:48;24.80;99.90
15991;DHT22;8100;50.994;4.538;2022-07-23T11:07:36;25.00;99.90
15991;DHT22;8100;50.994;4.538;2022-07-23T11:10:34;24.90;99.90
15991;DHT22;8100;50.994;4.538;2022-07-23T11:13:46;24.90;99.90
15991;DHT22;8100;50.994;4.538;2022-07-23T11:16:46;24.60;99.90
15991;DHT22;8100;50.994;4.538;2022-07-23T11:20:19;24.80;99.90
15991;DHT22;8100;50.994;4.538;2022-07-23T11:23:08;24.70;99.90
15991;DHT22;8100;50.994;4.538;2022-07-23T11:25:56;24.50;99.90
15991;DHT22;8100;50.994;4.538;2022-07-23T11:28:45;24.50;99.90
15991;DHT22;8100;50.994;4.538;2022-07-23T11:31:32;24.60;99.90
15991;DHT22;8100;50.994;4.538;2022-07-23T11:34:29;24.60;99.90
15991;DHT22;8100;50.994;4.538;2022-07-23T11:37:34;24.90;99.90
15991;DHT22;8100;50.994;4.538;2022-07-23T11:40:22;25.30;99.90
15991;DHT22;8100;50.994;4.538;2022-07-23T11:43:10;25.50;99.90
15991;DHT22;8100;50.994;4.538;2022-07-23T11:46:00;25.40;99.90
15991;DHT22;8100;50.994;4.538;2022-07-23T11:49:01;25.50;99.60
15991;DHT22;8100;50.994;4.538;2022-07-23T11:52:02;25.50;99.40
15991;DHT22;8100;50.994;4.538;2022-07-23T11:54:52;25.40;99.90
15991;DHT22;8100;50.994;4.538;2022-07-23T11:57:41;25.20;99.10
15991;DHT22;8100;50.994;4.538;2022-07-23T12:00:29;25.30;99.90
15991;DHT22;8100;50.994;4.538;2022-07-23T12:03:18;25.60;99.90
15991;DHT22;8100;50.994;4.538;2022-07-23T12:06:06;25.60;99.90
15991;DHT22;8100;50.994;4.538;2022-07-23T12:08:53;25.80;99.60
15991;DHT22;8100;50.994;4.538;2022-07-23T12:11:56;25.50;98.40
15991;DHT22;8100;50.994;4.538;2022-07-23T12:14:51;25.90;99.90
15991;DHT22;8100;50.994;4.538;2022-07-23T12:17:41;26.10;99.00
15991;DHT22;8100;50.994;4.538;2022-07-23T12:20:32;26.20;99.00
15991;DHT22;8100;50.994;4.538;2022-07-23T12:23:21;25.90;95.10
15991;DHT22;8100;50.994;4.538;2022-07-23T12:26:09;25.70;95.40
15991;DHT22;8100;50.994;4.538;2022-07-23T12:28:57;25.70;96.30
15991;DHT22;8100;50.994;4.538;2022-07-23T12:31:44;25.70;96.00
15991;DHT22;8100;50.994;4.538;2022-07-23T12:34:32;25.80;96.30
15991;DHT22;8100;50.994;4.538;2022-07-23T12:37:33;26.00;97.00
15991;DHT22;8100;50.994;4.538;2022-07-23T12:40:28;26.10;99.10
15991;DHT22;8100;50.994;4.538;2022-07-23T12:43:20;26.10;95.40
15991;DHT22;8100;50.994;4.538;2022-07-23T12:46:09;26.10;97.80
15991;DHT22;8100;50.994;4.538;2022-07-23T12:48:56;25.80;99.20
15991;DHT22;8100;50.994;4.538;2022-07-23T12:51:43;26.00;95.40
15991;DHT22;8100;50.994;4.538;2022-07-23T12:54:32;26.10;96.90
15991;DHT22;8100;50.994;4.538;2022-07-23T12:57:45;26.60;96.50
15991;DHT22;8100;50.994;4.538;2022-07-23T13:00:48;26.80;95.80
15991;DHT22;8100;50.994;4.538;2022-07-23T13:03:38;26.50;96.10
15991;DHT22;8100;50.994;4.538;2022-07-23T13:06:26;26.60;95.20
15991;DHT22;8100;50.994;4.538;2022-07-23T13:09:15;26.90;97.90
15991;DHT22;8100;50.994;4.538;2022-07-23T13:12:05;26.90;98.20
15991;DHT22;8100;50.994;4.538;2022-07-23T13:14:52;27.00;95.50
15991;DHT22;8100;50.994;4.538;2022-07-23T13:17:39;27.00;96.90
15991;DHT22;8100;50.994;4.538;2022-07-23T13:20:26;26.90;98.00
15991;DHT22;8100;50.994;4.538;2022-07-23T13:23:15;27.00;97.60
15991;DHT22;8100;50.994;4.538;2022-07-23T13:26:03;27.70;95.40
15991;DHT22;8100;50.994;4.538;2022-07-23T13:28:51;27.70;93.80
15991;DHT22;8100;50.994;4.538;2022-07-23T13:31:39;27.80;92.80
15991;DHT22;8100;50.994;4.538;2022-07-23T13:34:26;27.60;92.70
15991;DHT22;8100;50.994;4.538;2022-07-23T13:37:13;27.50;92.50
15991;DHT22;8100;50.994;4.538;2022-07-23T13:40:00;27.50;93.30
15991;DHT22;8100;50.994;4.538;2022-07-23T13:42:48;27.60;93.30
15991;DHT22;8100;50.994;4.538;2022-07-23T13:45:36;27.50;92.90
15991;DHT22;8100;50.994;4.538;2022-07-23T13:48:24;27.80;94.60
15991;DHT22;8100;50.994;4.538;2022-07-23T13:51:11;28.50;91.80
15991;DHT22;8100;50.994;4.538;2022-07-23T13:53:59;31.00;88.60
15991;DHT22;8100;50.994;4.538;2022-07-23T13:56:48;34.40;79.90
15991;DHT22;8100;50.994;4.538;2022-07-23T13:59:35;36.50;76.00
15991;DHT22;8100;50.994;4.538;2022-07-23T14:02:24;36.70;61.50
15991;DHT22;8100;50.994;4.538;2022-07-23T14:05:12;36.10;59.40
15991;DHT22;8100;50.994;4.538;2022-07-23T14:07:59;35.40;57.40
15991;DHT22;8100;50.994;4.538;2022-07-23T14:10:46;34.40;55.90
15991;DHT22;8100;50.994;4.538;2022-07-23T14:13:33;35.40;58.10
15991;DHT22;8100;50.994;4.538;2022-07-23T14:16:21;35.30;58.90
15991;DHT22;8100;50.994;4.538;2022-07-23T14:19:10;34.00;54.90
15991;DHT22;8100;50.994;4.538;2022-07-23T14:21:58;33.90;55.60
15991;DHT22;8100;50.994;4.538;2022-07-23T14:24:45;34.10;57.20
15991;DHT22;8100;50.994;4.538;2022-07-23T14:27:32;34.50;55.30
15991;DHT22;8100;50.994;4.538;2022-07-23T14:30:20;34.70;55.10
15991;DHT22;8100;50.994;4.538;2022-07-23T14:33:08;34.40;54.10
15991;DHT22;8100;50.994;4.538;2022-07-23T14:35:57;34.50;54.10
15991;DHT22;8100;50.994;4.538;2022-07-23T14:38:45;33.80;55.60
15991;DHT22;8100;50.994;4.538;2022-07-23T14:41:32;32.80;55.00
15991;DHT22;8100;50.994;4.538;2022-07-23T14:44:19;33.20;58.50
15991;DHT22;8100;50.994;4.538;2022-07-23T14:47:06;34.30;55.90
15991;DHT22;8100;50.994;4.538;2022-07-23T14:49:54;35.40;54.40
15991;DHT22;8100;50.994;4.538;2022-07-23T14:52:43;34.60;56.60
15991;DHT22;8100;50.994;4.538;2022-07-23T14:55:31;35.00;57.10
15991;DHT22;8100;50.994;4.538;2022-07-23T14:58:19;36.30;54.30
15991;DHT22;8100;50.994;4.538;2022-07-23T15:01:07;36.20;53.30
15991;DHT22;8100;50.994;4.538;2022-07-23T15:03:54;35.50;55.90
15991;DHT22;8100;50.994;4.538;2022-07-23T15:06:42;35.10;53.00
15991;DHT22;8100;50.994;4.538;2022-07-23T15:09:32;35.70;53.80
15991;DHT22;8100;50.994;4.538;2022-07-23T15:12:19;35.70;54.20
15991;DHT22;8100;50.994;4.538;2022-07-23T15:15:07;33.70;54.20
15991;DHT22;8100;50.994;4.538;2022-07-23T15:17:54;33.50;56.10
15991;DHT22;8100;50.994;4.538;2022-07-23T15:20:41;35.20;54.50
15991;DHT22;8100;50.994;4.538;2022-07-23T15:23:29;36.40;52.70
15991;DHT22;8100;50.994;4.538;2022-07-23T15:26:17;35.30;53.90
15991;DHT22;8100;50.994;4.538;2022-07-23T15:29:05;36.70;52.00
15991;DHT22;8100;50.994;4.538;2022-07-23T15:31:52;38.40;50.80
15991;DHT22;8100;50.994;4.538;2022-07-23T15:34:40;39.10;49.40
15991;DHT22;8100;50.994;4.538;2022-07-23T15:37:27;38.70;48.90
15991;DHT22;8100;50.994;4.538;2022-07-23T15:40:14;37.60;48.40
15991;DHT22;8100;50.994;4.538;2022-07-23T15:43:03;36.10;50.20
15991;DHT22;8100;50.994;4.538;2022-07-23T15:45:51;35.50;50.70
15991;DHT22;8100;50.994;4.538;2022-07-23T15:48:38;34.60;51.70
15991;DHT22;8100;50.994;4.538;2022-07-23T15:51:25;33.70;52.20
15991;DHT22;8100;50.994;4.538;2022-07-23T15:54:12;34.40;51.40
15991;DHT22;8100;50.994;4.538;2022-07-23T15:57:00;36.70;49.40
15991;DHT22;8100;50.994;4.538;2022-07-23T15:59:48;37.60;50.40
15991;DHT22;8100;50.994;4.538;2022-07-23T16:02:36;37.40;48.60
15991;DHT22;8100;50.994;4.538;2022-07-23T16:05:23;36.90;50.00
15991;DHT22;8100;50.994;4.538;2022-07-23T16:08:10;37.10;50.10
15991;DHT22;8100;50.994;4.538;2022-07-23T16:10:58;36.40;48.70
15991;DHT22;8100;50.994;4.538;2022-07-23T16:13:45;37.20;51.80
15991;DHT22;8100;50.994;4.538;2022-07-23T16:16:34;36.50;50.10
15991;DHT22;8100;50.994;4.538;2022-07-23T16:19:21;35.60;50.30
15991;DHT22;8100;50.994;4.538;2022-07-23T16:22:08;35.80;51.20
15991;DHT22;8100;50.994;4.538;2022-07-23T16:24:56;36.70;48.40
15991;DHT22;8100;50.994;4.538;2022-07-23T16:27:44;36.50;50.60
15991;DHT22;8100;50.994;4.538;2022-07-23T16:30:31;38.40;48.50
15991;DHT22;8100;50.994;4.538;2022-07-23T16:33:21;39.10;47.40
15991;DHT22;8100;50.994;4.538;2022-07-23T16:36:09;39.00;46.40
15991;DHT22;8100;50.994;4.538;2022-07-23T16:38:56;38.60;45.90
15991;DHT22;8100;50.994;4.538;2022-07-23T16:41:44;35.20;49.60
15991;DHT22;8100;50.994;4.538;2022-07-23T16:44:31;32.30;52.60
15991;DHT22;8100;50.994;4.538;2022-07-23T16:47:19;30.80;53.40
15991;DHT22;8100;50.994;4.538;2022-07-23T16:50:08;30.00;56.60
15991;DHT22;8100;50.994;4.538;2022-07-23T16:52:56;29.40;56.70
15991;DHT22;8100;50.994;4.538;2022-07-23T16:55:44;28.70;58.80
15991;DHT22;8100;50.994;4.538;2022-07-23T16:58:31;28.70;57.90
15991;DHT22;8100;50.994;4.538;2022-07-23T17:01:19;28.50;58.70
15991;DHT22;8100;50.994;4.538;2022-07-23T17:04:06;28.60;59.70
15991;DHT22;8100;50.994;4.538;2022-07-23T17:06:55;28.50;60.30
15991;DHT22;8100;50.994;4.538;2022-07-23T17:09:43;28.30;59.20
15991;DHT22;8100;50.994;4.538;2022-07-23T17:12:30;28.40;61.80
15991;DHT22;8100;50.994;4.538;2022-07-23T17:15:18;28.50;60.70
15991;DHT22;8100;50.994;4.538;2022-07-23T17:18:05;28.30;60.50
15991;DHT22;8100;50.994;4.538;2022-07-23T17:20:53;28.10;60.40
15991;DHT22;8100;50.994;4.538;2022-07-23T17:23:41;28.30;60.20
15991;DHT22;8100;50.994;4.538;2022-07-23T17:26:28;28.20;61.30
15991;DHT22;8100;50.994;4.538;2022-07-23T17:29:18;27.90;62.70
15991;DHT22;8100;50.994;4.538;2022-07-23T17:32:06;27.80;62.00
15991;DHT22;8100;50.994;4.538;2022-07-23T17:34:53;27.60;62.90
15991;DHT22;8100;50.994;4.538;2022-07-23T17:37:40;27.60;62.40
15991;DHT22;8100;50.994;4.538;2022-07-23T17:40:29;27.80;62.90
15991;DHT22;8100;50.994;4.538;2022-07-23T17:43:17;27.60;65.00
15991;DHT22;8100;50.994;4.538;2022-07-23T17:46:04;27.60;65.10
15991;DHT22;8100;50.994;4.538;2022-07-23T17:48:52;27.30;68.90
15991;DHT22;8100;50.994;4.538;2022-07-23T17:51:39;26.90;67.50
15991;DHT22;8100;50.994;4.538;2022-07-23T17:54:26;26.80;71.80
15991;DHT22;8100;50.994;4.538;2022-07-23T17:57:15;26.70;68.80
15991;DHT22;8100;50.994;4.538;2022-07-23T18:00:04;26.80;72.10
15991;DHT22;8100;50.994;4.538;2022-07-23T18:02:52;26.80;71.10